Darstellungsparameter: Aktuell verwendete Einstellungen:
Skalierung der Graphiken ... ?
xyx+y,   Skalierungsfaktor:      Skalierung: Modus: x, Faktor: 1
Darstellungszeitraum ... ?
Vom - - bis: - -   Zeitraum: 03.10.2009 - 08.10.2009
Min/Max/Avg-Anzeige ... ?
Zeige MMA aktuell
Zeige MMA Monat
Zeige MMA alles
Zeige --A aktuell
Zeige --A Monat
Zeige --A alles
Keine MMA-Anzeige
MMA:
Average (ber die Originaldaten)
MMA-Basis: 03.10.2009 - 08.10.2009
Quicknavigation für Darstellung... ?
Tage:      1T, 2T, 3T, 5T -1T -2T -3T -5T +1T +2T +3T +5T
Wochen: 1W, 2W, 3W -1W -2W -3W +1W +2W +3W
Monate: 1M, 3M, 6M -1M -3M -6M +1M +3M +6M
Jahre:    1J, 3J, 5J, 10J -1J -3J -5J -10J +1J +3J +5J +10J
Nutze für die Darstellung ... ?
Originaldaten oder Mittelwerte auf ...
Stundenbasis Tagesbasis Wochenbasis
Monatsbasis Jahresbasis      Datenbasis: Original-Daten
Darstellen als:
Statistik (Auto) Statistik J:M      Darstellung:
Zur Graphik,    zurück zur Übersicht aller Sensoren.
 
Tabellarische Datenbersicht: ?
 
Sensor: Nr:Datum:Temp:Abs-Feuchte:Windchill:Wind:
Aussen-T/F 1 03-10-2009 00:03:05 9.6 C 6.69 g/m*3 9.6 C 0 km/h
2 03-10-2009 00:15:05 9.5 C 6.64 g/m*3 9.5 C 0 km/h
3 03-10-2009 00:27:05 9.2 C 6.7 g/m*3 9.2 C 0 km/h
4 03-10-2009 00:39:05 9 C 6.79 g/m*3 9 C 0 km/h
5 03-10-2009 00:51:05 9.1 C 6.83 g/m*3 9.1 C 0 km/h
6 03-10-2009 01:03:05 8.9 C 6.83 g/m*3 8.9 C 0 km/h
7 03-10-2009 01:15:05 8.7 C 6.83 g/m*3 8.7 C 0 km/h
8 03-10-2009 01:27:05 8.6 C 6.87 g/m*3 8.6 C 0 km/h
9 03-10-2009 01:39:05 8.4 C 6.79 g/m*3 8.4 C 0 km/h
10 03-10-2009 01:51:05 8.4 C 6.87 g/m*3 8.4 C 0 km/h
11 03-10-2009 02:03:05 8.1 C 6.74 g/m*3 8.1 C 0 km/h
12 03-10-2009 02:15:05 8.1 C 6.82 g/m*3 8.1 C 0 km/h
13 03-10-2009 02:27:05 8 C 6.78 g/m*3 8 C 0 km/h
14 03-10-2009 02:39:05 7.7 C 6.73 g/m*3 7.7 C 0 km/h
15 03-10-2009 02:51:05 7.5 C 6.72 g/m*3 7.5 C 0 km/h
16 03-10-2009 03:03:06 7.4 C 6.76 g/m*3 7.4 C 0 km/h
17 03-10-2009 03:15:06 7.3 C 6.79 g/m*3 7.3 C 0 km/h
18 03-10-2009 03:27:06 7.3 C 6.79 g/m*3 7.3 C 0 km/h
19 03-10-2009 03:39:06 7.4 C 6.84 g/m*3 7.4 C 0 km/h
20 03-10-2009 03:51:06 7.1 C 6.79 g/m*3 7.1 C 0 km/h
21 03-10-2009 04:03:06 6.9 C 6.77 g/m*3 6.9 C 0 km/h
22 03-10-2009 04:15:06 6.9 C 6.77 g/m*3 6.9 C 0 km/h
23 03-10-2009 04:27:06 6.9 C 6.77 g/m*3 6.9 C 0 km/h
24 03-10-2009 04:39:06 6.8 C 6.73 g/m*3 6.8 C 0 km/h
25 03-10-2009 04:51:06 6.6 C 6.72 g/m*3 6.6 C 0 km/h
Sensor: Nr:Datum:Temp:Abs-Feuchte:Windchill:Wind:
Aussen-T/F 26 03-10-2009 05:03:06 6.5 C 6.67 g/m*3 6.5 C 0 km/h
27 03-10-2009 05:15:06 6.4 C 6.63 g/m*3 6.4 C 0 km/h
28 03-10-2009 05:27:06 6.4 C 6.63 g/m*3 6.4 C 0 km/h
29 03-10-2009 05:39:06 6.4 C 6.71 g/m*3 6.4 C 0 km/h
30 03-10-2009 05:51:06 6.7 C 6.91 g/m*3 6.7 C 0 km/h
31 03-10-2009 06:03:06 7 C 6.97 g/m*3 7 C 0 km/h
32 03-10-2009 06:15:06 7.2 C 7.06 g/m*3 7.2 C 0 km/h
33 03-10-2009 06:27:06 7.3 C 7.03 g/m*3 7.3 C 0 km/h
34 03-10-2009 06:39:06 7.4 C 7.08 g/m*3 7.4 C 0 km/h
35 03-10-2009 06:51:06 7.4 C 7 g/m*3 7.4 C 0 km/h
36 03-10-2009 07:03:07 7.4 C 6.92 g/m*3 7.4 C 0 km/h
37 03-10-2009 07:15:07 7.4 C 6.92 g/m*3 7.4 C 0 km/h
38 03-10-2009 07:27:07 7.5 C 6.96 g/m*3 7.5 C 0 km/h
39 03-10-2009 07:39:07 7.5 C 6.88 g/m*3 7.5 C 0 km/h
40 03-10-2009 07:51:07 7.6 C 7.01 g/m*3 7.6 C 0 km/h
41 03-10-2009 08:03:07 8.1 C 7.16 g/m*3 8.1 C 0 km/h
42 03-10-2009 08:15:04 8.7 C 7.01 g/m*3 8.7 C 0 km/h
43 03-10-2009 08:27:04 9.1 C 6.83 g/m*3 9.1 C 0 km/h
44 03-10-2009 08:39:04 9.4 C 6.78 g/m*3 9.4 C 0 km/h
45 03-10-2009 08:51:02 9.6 C 6.6 g/m*3 9.6 C 0 km/h
46 03-10-2009 09:03:01 9.8 C 6.68 g/m*3 9.8 C 0 km/h
47 03-10-2009 09:15:01 10 C 6.48 g/m*3 10 C 0 km/h
48 03-10-2009 09:27:01 10.2 C 6.47 g/m*3 10.2 C 0 km/h
49 03-10-2009 09:39:02 10.4 C 6.55 g/m*3 10.4 C 0 km/h
50 03-10-2009 09:51:02 10.6 C 6.54 g/m*3 10.6 C 0 km/h
Sensor: Nr:Datum:Temp:Abs-Feuchte:Windchill:Wind:
Aussen-T/F 51 03-10-2009 10:03:02 10.8 C 6.52 g/m*3 10.8 C 0 km/h
52 03-10-2009 10:15:02 11 C 6.51 g/m*3 11 C 0 km/h
53 03-10-2009 10:27:02 11.4 C 6.57 g/m*3 11.4 C 0 km/h
54 03-10-2009 10:39:02 11.8 C 6.53 g/m*3 11.8 C 0 km/h
55 03-10-2009 10:51:02 12.1 C 6.43 g/m*3 12.1 C 0 km/h
56 03-10-2009 11:03:02 12.5 C 6.49 g/m*3 12.5 C 0 km/h
57 03-10-2009 11:15:02 13.1 C 6.28 g/m*3 13.1 C 0 km/h
58 03-10-2009 11:27:02 13.4 C 6.28 g/m*3 13.4 C 0 km/h
59 03-10-2009 11:39:02 13.6 C 6.12 g/m*3 13.6 C 0 km/h
60 03-10-2009 11:51:02 13.8 C 6.08 g/m*3 13.8 C 0 km/h
61 03-10-2009 12:03:02 14.1 C 6.07 g/m*3 14.1 C 0 km/h
62 03-10-2009 12:15:03 14.4 C 6.06 g/m*3 14.4 C 0 km/h
63 03-10-2009 12:27:03 14.7 C 6.17 g/m*3 14.7 C 0 km/h
64 03-10-2009 12:39:02 15.1 C 6.19 g/m*3 15.1 C 0 km/h
65 03-10-2009 12:51:02 15.4 C 6.04 g/m*3 15.4 C 0 km/h
66 03-10-2009 13:03:02 15.1 C 6.06 g/m*3 15.1 C 0 km/h
67 03-10-2009 13:15:03 15.1 C 6.06 g/m*3 15.1 C 0 km/h
68 03-10-2009 13:27:03 14.9 C 6.12 g/m*3 14.9 C 0 km/h
69 03-10-2009 13:39:02 15.3 C 6.14 g/m*3 15.3 C 0 km/h
70 03-10-2009 13:51:02 15.2 C 6.1 g/m*3 15.2 C 0 km/h
71 03-10-2009 14:03:02 15.3 C 6.01 g/m*3 15.3 C 0 km/h
72 03-10-2009 14:15:02 15.3 C 6.14 g/m*3 15.3 C 0 km/h
73 03-10-2009 14:27:03 15.8 C 6.06 g/m*3 15.8 C 0 km/h
74 03-10-2009 14:39:02 16.1 C 6.03 g/m*3 16.1 C 0 km/h
75 03-10-2009 14:51:02 15.8 C 6.06 g/m*3 15.8 C 0 km/h
Sensor: Nr:Datum:Temp:Abs-Feuchte:Windchill:Wind:
Aussen-T/F 76 03-10-2009 15:03:01 15.8 C 6.06 g/m*3 15.8 C 0 km/h
77 03-10-2009 15:15:02 15.9 C 6.09 g/m*3 15.9 C 0 km/h
78 03-10-2009 15:27:02 16.3 C 5.97 g/m*3 16.3 C 0 km/h
79 03-10-2009 15:39:02 16.1 C 6.03 g/m*3 16.1 C 0 km/h
80 03-10-2009 15:51:02 15.7 C 6.15 g/m*3 15.7 C 0 km/h
81 03-10-2009 16:03:03 15.7 C 6.15 g/m*3 15.7 C 0 km/h
82 03-10-2009 16:15:02 15.6 C 6.12 g/m*3 15.6 C 0 km/h
83 03-10-2009 16:27:02 15.4 C 6.04 g/m*3 15.4 C 0 km/h
84 03-10-2009 16:39:02 15.3 C 6.01 g/m*3 15.3 C 0 km/h
85 03-10-2009 16:51:02 15.2 C 6.1 g/m*3 15.2 C 0 km/h
86 03-10-2009 17:03:02 15.2 C 6.1 g/m*3 15.2 C 0 km/h
87 03-10-2009 17:15:01 15.4 C 6.04 g/m*3 15.4 C 0 km/h
88 03-10-2009 17:27:01 15.5 C 6.08 g/m*3 15.5 C 0 km/h
89 03-10-2009 17:39:02 15.6 C 6.12 g/m*3 15.6 C 0 km/h
90 03-10-2009 17:51:02 15.5 C 6.08 g/m*3 15.5 C 0 km/h
91 03-10-2009 18:03:02 15.4 C 6.04 g/m*3 15.4 C 0 km/h
92 03-10-2009 18:15:01 15.4 C 6.04 g/m*3 15.4 C 0 km/h
93 03-10-2009 18:27:01 15.7 C 6.15 g/m*3 15.7 C 0 km/h
94 03-10-2009 18:39:02 15.7 C 6.15 g/m*3 15.7 C 0 km/h
95 03-10-2009 18:51:01 15.3 C 6.14 g/m*3 15.3 C 0 km/h
96 03-10-2009 19:03:02 15 C 6.15 g/m*3 15 C 0 km/h
97 03-10-2009 19:15:02 14.8 C 6.46 g/m*3 14.8 C 0 km/h
98 03-10-2009 19:27:02 14.6 C 6.51 g/m*3 14.6 C 0 km/h
99 03-10-2009 19:39:02 14.5 C 6.47 g/m*3 14.5 C 0 km/h
100 03-10-2009 19:51:02 14.6 C 6.63 g/m*3 14.6 C 0 km/h
Sensor: Nr:Datum:Temp:Abs-Feuchte:Windchill:Wind:
Aussen-T/F 101 03-10-2009 20:03:01 14.3 C 6.63 g/m*3 14.3 C 0 km/h
102 03-10-2009 20:15:02 13.9 C 6.71 g/m*3 13.9 C 0 km/h
103 03-10-2009 20:27:02 13.4 C 6.74 g/m*3 13.4 C 0 km/h
104 03-10-2009 20:39:01 13 C 6.8 g/m*3 13 C 0 km/h
105 03-10-2009 20:51:02 12.8 C 6.94 g/m*3 12.8 C 0 km/h
106 03-10-2009 21:03:02 13 C 6.92 g/m*3 13 C 0 km/h
107 03-10-2009 21:15:01 13 C 6.92 g/m*3 13 C 0 km/h
108 03-10-2009 21:27:01 12.9 C 7.1 g/m*3 12.9 C 0 km/h
109 03-10-2009 21:39:01 13.1 C 6.96 g/m*3 13.1 C 0 km/h
110 03-10-2009 21:51:01 13.1 C 6.96 g/m*3 13.1 C 0 km/h
111 03-10-2009 22:03:01 13.1 C 6.96 g/m*3 13.1 C 0 km/h
112 03-10-2009 22:15:02 13.2 C 7.12 g/m*3 13.2 C 0 km/h
113 03-10-2009 22:27:02 13.3 C 6.93 g/m*3 13.3 C 0 km/h
114 03-10-2009 22:39:01 13.4 C 6.97 g/m*3 13.4 C 0 km/h
115 03-10-2009 22:52:03 13.7 C 6.63 g/m*3 13.7 C 0 km/h
116 03-10-2009 23:04:03 14 C 6.39 g/m*3 14 C 0 km/h
117 03-10-2009 23:16:03 14 C 6.39 g/m*3 14 C 0 km/h
118 03-10-2009 23:28:03 14 C 6.39 g/m*3 14 C 0 km/h
119 03-10-2009 23:40:03 14 C 6.39 g/m*3 14 C 0 km/h
120 03-10-2009 23:52:03 13.9 C 6.47 g/m*3 13.9 C 0 km/h
121 04-10-2009 00:04:03 13.9 C 6.47 g/m*3 13.9 C 0 km/h
122 04-10-2009 00:16:03 13.8 C 6.55 g/m*3 13.8 C 0 km/h
123 04-10-2009 00:28:03 13.8 C 6.43 g/m*3 13.8 C 0 km/h
124 04-10-2009 00:40:03 13.7 C 6.51 g/m*3 13.7 C 0 km/h
125 04-10-2009 00:52:03 13.5 C 6.43 g/m*3 13.5 C 0 km/h
Sensor: Nr:Datum:Temp:Abs-Feuchte:Windchill:Wind:
Aussen-T/F 126 04-10-2009 01:04:04 13.2 C 6.32 g/m*3 13.2 C 0 km/h
127 04-10-2009 01:16:04 13.2 C 6.32 g/m*3 13.2 C 0 km/h
128 04-10-2009 01:28:04 13.2 C 6.32 g/m*3 13.2 C 0 km/h
129 04-10-2009 01:40:04 12.9 C 6.31 g/m*3 12.9 C 0 km/h
130 04-10-2009 01:52:04 13 C 6.35 g/m*3 13 C 0 km/h
131 04-10-2009 02:04:04 13.2 C 6.32 g/m*3 13.2 C 0 km/h
132 04-10-2009 02:16:04 13.3 C 6.24 g/m*3 13.3 C 0 km/h
133 04-10-2009 02:28:04 13.3 C 6.35 g/m*3 13.3 C 0 km/h
134 04-10-2009 02:40:04 13.2 C 6.32 g/m*3 13.2 C 0 km/h
135 04-10-2009 02:52:04 13.1 C 6.28 g/m*3 13.1 C 0 km/h
136 04-10-2009 03:04:04 12.9 C 6.42 g/m*3 12.9 C 0 km/h
137 04-10-2009 03:16:04 12.8 C 6.38 g/m*3 12.8 C 0 km/h
138 04-10-2009 03:28:04 12.7 C 6.35 g/m*3 12.7 C 0 km/h
139 04-10-2009 03:40:04 12.6 C 6.42 g/m*3 12.6 C 0 km/h
140 04-10-2009 03:52:04 12.8 C 6.38 g/m*3 12.8 C 0 km/h
141 04-10-2009 04:04:04 12.7 C 6.46 g/m*3 12.7 C 0 km/h
142 04-10-2009 04:16:04 12.6 C 6.53 g/m*3 12.6 C 0 km/h
143 04-10-2009 04:28:04 12.7 C 6.46 g/m*3 12.7 C 0 km/h
144 04-10-2009 04:40:04 12.8 C 6.5 g/m*3 12.8 C 0 km/h
145 04-10-2009 04:52:04 12.7 C 6.57 g/m*3 12.7 C 0 km/h
146 04-10-2009 05:04:04 12.6 C 6.53 g/m*3 12.6 C 0 km/h
147 04-10-2009 05:16:05 12.9 C 6.65 g/m*3 12.9 C 0 km/h
148 04-10-2009 05:28:05 13 C 6.58 g/m*3 13 C 0 km/h
149 04-10-2009 05:40:05 13.1 C 6.5 g/m*3 13.1 C 0 km/h
150 04-10-2009 05:52:05 13.2 C 6.54 g/m*3 13.2 C 0 km/h
Sensor: Nr:Datum:Temp:Abs-Feuchte:Windchill:Wind:
Aussen-T/F 151 04-10-2009 06:04:05 13.1 C 6.5 g/m*3 13.1 C 0 km/h
152 04-10-2009 06:16:05 13.1 C 6.5 g/m*3 13.1 C 0 km/h
153 04-10-2009 06:28:05 13.1 C 6.5 g/m*3 13.1 C 0 km/h
154 04-10-2009 06:40:05 13 C 6.46 g/m*3 13 C 0 km/h
155 04-10-2009 06:52:05 12.8 C 6.61 g/m*3 12.8 C 0 km/h
156 04-10-2009 07:04:05 12.9 C 6.65 g/m*3 12.9 C 0 km/h
157 04-10-2009 07:16:05 13 C 6.46 g/m*3 13 C 0 km/h
158 04-10-2009 07:28:05 13 C 6.58 g/m*3 13 C 0 km/h
159 04-10-2009 07:40:05 12.9 C 6.65 g/m*3 12.9 C 0 km/h
160 04-10-2009 07:52:05 12.8 C 6.61 g/m*3 12.8 C 0 km/h
161 04-10-2009 08:04:05 12.9 C 6.76 g/m*3 12.9 C 0 km/h
162 04-10-2009 08:16:05 12.9 C 6.76 g/m*3 12.9 C 0 km/h
163 04-10-2009 08:28:05 13 C 6.69 g/m*3 13 C 0 km/h
164 04-10-2009 08:40:03 13.1 C 6.62 g/m*3 13.1 C 0 km/h
165 04-10-2009 08:52:02 13.3 C 6.7 g/m*3 13.3 C 0 km/h
166 04-10-2009 09:04:02 13.5 C 6.78 g/m*3 13.5 C 0 km/h
167 04-10-2009 09:16:02 13.7 C 6.87 g/m*3 13.7 C 0 km/h
168 04-10-2009 09:28:02 13.8 C 6.91 g/m*3 13.8 C 0 km/h
169 04-10-2009 09:40:02 13.8 C 6.91 g/m*3 13.8 C 0 km/h
170 04-10-2009 09:52:01 13.9 C 7.07 g/m*3 13.9 C 0 km/h
171 04-10-2009 10:04:02 14.1 C 7.04 g/m*3 14.1 C 0 km/h
172 04-10-2009 10:16:01 14.2 C 6.96 g/m*3 14.2 C 0 km/h
173 04-10-2009 10:28:01 14.6 C 7.13 g/m*3 14.6 C 0 km/h
174 04-10-2009 10:40:01 14.8 C 7.09 g/m*3 14.8 C 0 km/h
175 04-10-2009 10:52:01 14.8 C 7.09 g/m*3 14.8 C 0 km/h
Sensor: Nr:Datum:Temp:Abs-Feuchte:Windchill:Wind:
Aussen-T/F 176 04-10-2009 11:04:02 14.7 C 7.18 g/m*3 14.7 C 0 km/h
177 04-10-2009 11:16:01 14.9 C 7.26 g/m*3 14.9 C 0 km/h
178 04-10-2009 11:28:01 15.3 C 7.31 g/m*3 15.3 C 0 km/h
179 04-10-2009 11:40:02 15 C 7.18 g/m*3 15 C 0 km/h
180 04-10-2009 11:52:01 14.8 C 7.47 g/m*3 14.8 C 0 km/h
181 04-10-2009 12:04:02 14.8 C 7.47 g/m*3 14.8 C 0 km/h
182 04-10-2009 12:16:02 14.7 C 7.55 g/m*3 14.7 C 0 km/h
183 04-10-2009 12:28:02 14.7 C 7.55 g/m*3 14.7 C 0 km/h
184 04-10-2009 12:40:01 14.9 C 7.65 g/m*3 14.9 C 0 km/h
185 04-10-2009 12:52:01 15.3 C 7.84 g/m*3 15.3 C 0 km/h
186 04-10-2009 13:04:01 15.6 C 7.58 g/m*3 15.6 C 0 km/h
187 04-10-2009 13:16:02 15.8 C 7.54 g/m*3 15.8 C 0 km/h
188 04-10-2009 13:28:02 15.5 C 7.67 g/m*3 15.5 C 0 km/h
189 04-10-2009 13:40:01 15.4 C 7.62 g/m*3 15.4 C 0 km/h
190 04-10-2009 13:52:02 15.6 C 7.58 g/m*3 15.6 C 0 km/h
191 04-10-2009 14:04:01 15.8 C 7.81 g/m*3 15.8 C 0 km/h
192 04-10-2009 14:16:01 15.9 C 7.72 g/m*3 15.9 C 0 km/h
193 04-10-2009 14:28:01 15.8 C 7.67 g/m*3 15.8 C 0 km/h
194 04-10-2009 14:40:01 15.6 C 7.58 g/m*3 15.6 C 0 km/h
195 04-10-2009 14:52:02 15.9 C 7.72 g/m*3 15.9 C 0 km/h
196 04-10-2009 15:04:02 16.2 C 7.58 g/m*3 16.2 C 0 km/h
197 04-10-2009 15:16:02 16 C 7.63 g/m*3 16 C 0 km/h
198 04-10-2009 15:28:02 15.8 C 7.81 g/m*3 15.8 C 0 km/h
199 04-10-2009 15:40:02 15.8 C 7.81 g/m*3 15.8 C 0 km/h
200 04-10-2009 15:52:02 15.8 C 7.81 g/m*3 15.8 C 0 km/h
Sensor: Nr:Datum:Temp:Abs-Feuchte:Windchill:Wind:
Aussen-T/F 201 04-10-2009 16:04:01 15.6 C 7.98 g/m*3 15.6 C 0 km/h
202 04-10-2009 16:16:01 14.6 C 8.76 g/m*3 14.6 C 0 km/h
203 04-10-2009 16:28:01 13.6 C 9.53 g/m*3 13.6 C 0 km/h
204 04-10-2009 16:40:02 13.2 C 9.76 g/m*3 13.2 C 0 km/h
205 04-10-2009 16:52:02 13.3 C 10.05 g/m*3 13.3 C 0 km/h
206 04-10-2009 17:04:02 13.3 C 10.17 g/m*3 13.3 C 0 km/h
207 04-10-2009 17:16:01 13.2 C 10.1 g/m*3 13.2 C 0 km/h
208 04-10-2009 17:28:01 13.3 C 10.28 g/m*3 13.3 C 0 km/h
209 04-10-2009 17:40:02 13.2 C 10.22 g/m*3 13.2 C 0 km/h
210 04-10-2009 17:52:02 13.2 C 10.22 g/m*3 13.2 C 0 km/h
211 04-10-2009 18:04:02 13.1 C 10.27 g/m*3 13.1 C 0 km/h
212 04-10-2009 18:16:02 13.1 C 10.27 g/m*3 13.1 C 0 km/h
213 04-10-2009 18:28:02 12.9 C 10.14 g/m*3 12.9 C 0 km/h
214 04-10-2009 18:40:02 12.8 C 10.08 g/m*3 12.8 C 0 km/h
215 04-10-2009 18:52:02 12.9 C 10.14 g/m*3 12.9 C 0 km/h
216 04-10-2009 19:04:02 12.9 C 10.14 g/m*3 12.9 C 0 km/h
217 04-10-2009 19:16:03 12.9 C 10.14 g/m*3 12.9 C 0 km/h
218 04-10-2009 19:28:03 13 C 10.21 g/m*3 13 C 0 km/h
219 04-10-2009 19:40:02 13 C 10.21 g/m*3 13 C 0 km/h
220 04-10-2009 19:52:02 13 C 10.09 g/m*3 13 C 0 km/h
221 04-10-2009 20:04:02 12.9 C 10.03 g/m*3 12.9 C 0 km/h
222 04-10-2009 20:16:02 12.6 C 9.85 g/m*3 12.6 C 0 km/h
223 04-10-2009 20:28:02 12.5 C 9.78 g/m*3 12.5 C 0 km/h
224 04-10-2009 20:40:02 12.4 C 9.83 g/m*3 12.4 C 0 km/h
225 04-10-2009 20:52:02 12.2 C 9.71 g/m*3 12.2 C 0 km/h
Sensor: Nr:Datum:Temp:Abs-Feuchte:Windchill:Wind:
Aussen-T/F 226 04-10-2009 21:04:02 12.2 C 9.71 g/m*3 12.2 C 0 km/h
227 04-10-2009 21:16:01 12.2 C 9.82 g/m*3 12.2 C 0 km/h
228 04-10-2009 21:28:01 12.2 C 9.82 g/m*3 12.2 C 0 km/h
229 04-10-2009 21:40:02 12.2 C 9.82 g/m*3 12.2 C 0 km/h
230 04-10-2009 21:52:01 12.2 C 9.82 g/m*3 12.2 C 0 km/h
231 04-10-2009 22:04:02 12.2 C 9.82 g/m*3 12.2 C 0 km/h
232 04-10-2009 22:16:02 12.2 C 9.93 g/m*3 12.2 C 0 km/h
233 04-10-2009 22:28:02 12.1 C 9.87 g/m*3 12.1 C 0 km/h
234 04-10-2009 22:41:03 12.1 C 9.87 g/m*3 12.1 C 0 km/h
235 04-10-2009 22:53:03 12.1 C 9.87 g/m*3 12.1 C 0 km/h
236 04-10-2009 23:05:03 12.1 C 9.87 g/m*3 12.1 C 0 km/h
237 04-10-2009 23:17:03 12.1 C 9.87 g/m*3 12.1 C 0 km/h
238 04-10-2009 23:29:03 12.1 C 9.87 g/m*3 12.1 C 0 km/h
239 04-10-2009 23:41:03 12.1 C 9.76 g/m*3 12.1 C 0 km/h
240 04-10-2009 23:53:03 12.1 C 9.76 g/m*3 12.1 C 0 km/h
241 05-10-2009 00:05:03 11.9 C 9.74 g/m*3 11.9 C 0 km/h
242 05-10-2009 00:17:04 11.9 C 9.74 g/m*3 11.9 C 0 km/h
243 05-10-2009 00:29:04 11.9 C 9.74 g/m*3 11.9 C 0 km/h
244 05-10-2009 00:41:04 11.9 C 9.74 g/m*3 11.9 C 0 km/h
245 05-10-2009 00:53:04 11.8 C 9.68 g/m*3 11.8 C 0 km/h
246 05-10-2009 01:05:04 11.7 C 9.62 g/m*3 11.7 C 0 km/h
247 05-10-2009 01:17:04 11.7 C 9.62 g/m*3 11.7 C 0 km/h
248 05-10-2009 01:29:04 11.6 C 9.56 g/m*3 11.6 C 0 km/h
249 05-10-2009 01:41:04 11.6 C 9.56 g/m*3 11.6 C 0 km/h
250 05-10-2009 01:53:04 11.5 C 9.61 g/m*3 11.5 C 0 km/h
Sensor: Nr:Datum:Temp:Abs-Feuchte:Windchill:Wind:
Aussen-T/F 251 05-10-2009 02:05:04 11.3 C 9.49 g/m*3 11.3 C 0 km/h
252 05-10-2009 02:17:04 11.2 C 9.43 g/m*3 11.2 C 0 km/h
253 05-10-2009 02:29:04 11.2 C 9.43 g/m*3 11.2 C 0 km/h
254 05-10-2009 02:41:04 11 C 9.31 g/m*3 11 C 0 km/h
255 05-10-2009 02:53:04 11 C 9.31 g/m*3 11 C 0 km/h
256 05-10-2009 03:05:04 11 C 9.31 g/m*3 11 C 0 km/h
257 05-10-2009 03:17:04 11.1 C 9.47 g/m*3 11.1 C 0 km/h
258 05-10-2009 03:29:04 11.1 C 9.47 g/m*3 11.1 C 0 km/h
259 05-10-2009 03:41:04 11.1 C 9.47 g/m*3 11.1 C 0 km/h
260 05-10-2009 03:53:04 11.2 C 9.53 g/m*3 11.2 C 0 km/h
261 05-10-2009 04:05:04 11.3 C 9.59 g/m*3 11.3 C 0 km/h
262 05-10-2009 04:17:04 11.2 C 9.53 g/m*3 11.2 C 0 km/h
263 05-10-2009 04:29:05 11.2 C 9.53 g/m*3 11.2 C 0 km/h
264 05-10-2009 04:41:05 11.1 C 9.47 g/m*3 11.1 C 0 km/h
265 05-10-2009 04:53:05 11.1 C 9.47 g/m*3 11.1 C 0 km/h
266 05-10-2009 05:05:05 11 C 9.41 g/m*3 11 C 0 km/h
267 05-10-2009 05:17:05 11 C 9.41 g/m*3 11 C 0 km/h
268 05-10-2009 05:29:05 11 C 9.41 g/m*3 11 C 0 km/h
269 05-10-2009 05:41:05 11 C 9.41 g/m*3 11 C 0 km/h
270 05-10-2009 05:53:05 11 C 9.51 g/m*3 11 C 0 km/h
271 05-10-2009 06:05:05 11 C 9.41 g/m*3 11 C 0 km/h
272 05-10-2009 06:17:05 11.1 C 9.57 g/m*3 11.1 C 0 km/h
273 05-10-2009 06:29:05 11.1 C 9.57 g/m*3 11.1 C 0 km/h
274 05-10-2009 06:41:05 11.1 C 9.57 g/m*3 11.1 C 0 km/h
275 05-10-2009 06:53:05 11.1 C 9.57 g/m*3 11.1 C 0 km/h
Sensor: Nr:Datum:Temp:Abs-Feuchte:Windchill:Wind:
Aussen-T/F 276 05-10-2009 07:05:03 11.1 C 9.57 g/m*3 11.1 C 0 km/h
277 05-10-2009 07:17:03 11.1 C 9.57 g/m*3 11.1 C 0 km/h
278 05-10-2009 07:29:03 11.1 C 9.57 g/m*3 11.1 C 0 km/h
279 05-10-2009 07:41:03 11.2 C 9.63 g/m*3 11.2 C 0 km/h
280 05-10-2009 07:53:02 11.2 C 9.63 g/m*3 11.2 C 0 km/h
281 05-10-2009 08:05:02 11.3 C 9.69 g/m*3 11.3 C 0 km/h
282 05-10-2009 08:17:03 11.4 C 9.75 g/m*3 11.4 C 0 km/h
283 05-10-2009 08:29:03 11.4 C 9.75 g/m*3 11.4 C 0 km/h
284 05-10-2009 08:41:02 11.6 C 9.87 g/m*3 11.6 C 0 km/h
285 05-10-2009 08:53:01 11.8 C 10 g/m*3 11.8 C 0 km/h
286 05-10-2009 09:05:01 11.9 C 10.06 g/m*3 11.9 C 0 km/h
287 05-10-2009 09:17:02 12.1 C 10.19 g/m*3 12.1 C 0 km/h
288 05-10-2009 09:29:02 12.2 C 10.25 g/m*3 12.2 C 0 km/h
289 05-10-2009 09:41:01 12.3 C 10.32 g/m*3 12.3 C 0 km/h
290 05-10-2009 09:53:02 12.4 C 10.38 g/m*3 12.4 C 0 km/h
291 05-10-2009 10:05:01 12.8 C 10.64 g/m*3 12.8 C 0 km/h
292 05-10-2009 10:17:02 13 C 10.66 g/m*3 13 C 0 km/h
293 05-10-2009 10:29:02 13.2 C 10.79 g/m*3 13.2 C 0 km/h
294 05-10-2009 10:41:01 13.2 C 10.68 g/m*3 13.2 C 0 km/h
295 05-10-2009 10:53:02 13.4 C 10.69 g/m*3 13.4 C 0 km/h
296 05-10-2009 11:05:02 13.3 C 10.4 g/m*3 13.3 C 0 km/h
297 05-10-2009 11:17:02 13.4 C 10 g/m*3 13.4 C 0 km/h
298 05-10-2009 11:29:02 13.8 C 10.13 g/m*3 13.8 C 0 km/h
299 05-10-2009 11:41:02 14.2 C 10.26 g/m*3 14.2 C 0 km/h
300 05-10-2009 11:53:02 14.1 C 10.07 g/m*3 14.1 C 0 km/h
Sensor: Nr:Datum:Temp:Abs-Feuchte:Windchill:Wind:
Aussen-T/F 301 05-10-2009 12:05:01 14.6 C 10.39 g/m*3 14.6 C 0 km/h
302 05-10-2009 12:17:02 15.2 C 10.25 g/m*3 15.2 C 0 km/h
303 05-10-2009 12:29:02 15.4 C 9.99 g/m*3 15.4 C 0 km/h
304 05-10-2009 12:41:02 15.5 C 9.91 g/m*3 15.5 C 0 km/h
305 05-10-2009 12:53:02 15.4 C 9.85 g/m*3 15.4 C 0 km/h
306 05-10-2009 13:05:03 15.3 C 10.06 g/m*3 15.3 C 0 km/h
307 05-10-2009 13:17:02 14.9 C 10.07 g/m*3 14.9 C 0 km/h
308 05-10-2009 13:29:02 14.8 C 10.26 g/m*3 14.8 C 0 km/h
309 05-10-2009 13:41:02 14.7 C 10.2 g/m*3 14.7 C 0 km/h
310 05-10-2009 13:53:01 14.7 C 10.45 g/m*3 14.7 C 0 km/h
311 05-10-2009 14:05:02 14.7 C 10.45 g/m*3 14.7 C 0 km/h
312 05-10-2009 14:17:01 14.6 C 10.51 g/m*3 14.6 C 0 km/h
313 05-10-2009 14:29:01 14.4 C 10.26 g/m*3 14.4 C 0 km/h
314 05-10-2009 14:41:02 14.3 C 10.2 g/m*3 14.3 C 0 km/h
315 05-10-2009 14:53:01 14.1 C 10.19 g/m*3 14.1 C 0 km/h
316 05-10-2009 15:05:02 14 C 10.13 g/m*3 14 C 0 km/h
317 05-10-2009 15:17:02 13.6 C 10 g/m*3 13.6 C 0 km/h
318 05-10-2009 15:29:02 13.5 C 10.18 g/m*3 13.5 C 0 km/h
319 05-10-2009 15:41:01 13.5 C 10.29 g/m*3 13.5 C 0 km/h
320 05-10-2009 15:53:01 13.7 C 10.54 g/m*3 13.7 C 0 km/h
321 05-10-2009 16:05:02 13.8 C 10.6 g/m*3 13.8 C 0 km/h
322 05-10-2009 16:17:02 13.5 C 10.53 g/m*3 13.5 C 0 km/h
323 05-10-2009 16:29:02 13.4 C 10.46 g/m*3 13.4 C 0 km/h
324 05-10-2009 16:41:01 13.2 C 10.33 g/m*3 13.2 C 0 km/h
325 05-10-2009 16:53:02 13.1 C 10.38 g/m*3 13.1 C 0 km/h
Sensor: Nr:Datum:Temp:Abs-Feuchte:Windchill:Wind:
Aussen-T/F 326 05-10-2009 17:05:01 13 C 10.32 g/m*3 13 C 0 km/h
327 05-10-2009 17:17:02 12.7 C 10.24 g/m*3 12.7 C 0 km/h
328 05-10-2009 17:29:02 12.4 C 10.05 g/m*3 12.4 C 0 km/h
329 05-10-2009 17:41:01 12.3 C 9.99 g/m*3 12.3 C 0 km/h
330 05-10-2009 17:53:02 12.1 C 9.87 g/m*3 12.1 C 0 km/h
331 05-10-2009 18:05:02 12.2 C 9.82 g/m*3 12.2 C 0 km/h
332 05-10-2009 18:17:02 12 C 9.8 g/m*3 12 C 0 km/h
333 05-10-2009 18:29:02 12 C 9.8 g/m*3 12 C 0 km/h
334 05-10-2009 18:41:02 12 C 9.8 g/m*3 12 C 0 km/h
335 05-10-2009 18:53:02 12 C 9.91 g/m*3 12 C 0 km/h
336 05-10-2009 19:05:01 12 C 9.91 g/m*3 12 C 0 km/h
337 05-10-2009 19:17:01 12 C 9.91 g/m*3 12 C 0 km/h
338 05-10-2009 19:29:01 12 C 9.91 g/m*3 12 C 0 km/h
339 05-10-2009 19:41:02 12 C 10.02 g/m*3 12 C 0 km/h
340 05-10-2009 19:53:02 12 C 10.02 g/m*3 12 C 0 km/h
341 05-10-2009 20:05:02 12 C 10.02 g/m*3 12 C 0 km/h
342 05-10-2009 20:17:02 12 C 10.02 g/m*3 12 C 0 km/h
343 05-10-2009 20:29:02 12 C 10.02 g/m*3 12 C 0 km/h
344 05-10-2009 20:41:02 12 C 10.02 g/m*3 12 C 0 km/h
345 05-10-2009 20:53:01 12.3 C 10.32 g/m*3 12.3 C 0 km/h
346 05-10-2009 21:05:01 12.2 C 10.25 g/m*3 12.2 C 0 km/h
347 05-10-2009 21:17:02 12.1 C 10.19 g/m*3 12.1 C 0 km/h
348 05-10-2009 21:29:02 12.1 C 10.19 g/m*3 12.1 C 0 km/h
349 05-10-2009 21:41:01 12.2 C 10.25 g/m*3 12.2 C 0 km/h
350 05-10-2009 21:53:03 12.2 C 10.25 g/m*3 12.2 C 0 km/h
Sensor: Nr:Datum:Temp:Abs-Feuchte:Windchill:Wind:
Aussen-T/F 351 05-10-2009 22:05:02 12.2 C 10.25 g/m*3 12.2 C 0 km/h
352 05-10-2009 22:18:02 12.3 C 10.32 g/m*3 12.3 C 0 km/h
353 05-10-2009 22:30:02 12.3 C 10.32 g/m*3 12.3 C 0 km/h
354 05-10-2009 22:42:03 12.3 C 10.32 g/m*3 12.3 C 0 km/h
355 05-10-2009 22:54:03 12.4 C 10.38 g/m*3 12.4 C 0 km/h
356 05-10-2009 23:06:03 12.4 C 10.38 g/m*3 12.4 C 0 km/h
357 05-10-2009 23:18:03 12.4 C 10.38 g/m*3 12.4 C 0 km/h
358 05-10-2009 23:30:03 12.4 C 10.38 g/m*3 12.4 C 0 km/h
359 05-10-2009 23:42:03 12.5 C 10.44 g/m*3 12.5 C 0 km/h
360 05-10-2009 23:54:03 12.5 C 10.44 g/m*3 12.5 C 0 km/h
361 06-10-2009 00:06:03 12.6 C 10.51 g/m*3 12.6 C 0 km/h
362 06-10-2009 00:18:03 12.6 C 10.51 g/m*3 12.6 C 0 km/h
363 06-10-2009 00:30:03 12.6 C 10.51 g/m*3 12.6 C 0 km/h
364 06-10-2009 00:42:03 12.7 C 10.58 g/m*3 12.7 C 0 km/h
365 06-10-2009 00:54:03 12.6 C 10.51 g/m*3 12.6 C 0 km/h
366 06-10-2009 01:06:03 12.6 C 10.51 g/m*3 12.6 C 0 km/h
367 06-10-2009 01:18:03 12.7 C 10.58 g/m*3 12.7 C 0 km/h
368 06-10-2009 01:30:03 12.8 C 10.64 g/m*3 12.8 C 0 km/h
369 06-10-2009 01:42:03 12.8 C 10.64 g/m*3 12.8 C 0 km/h
370 06-10-2009 01:54:03 12.9 C 10.71 g/m*3 12.9 C 0 km/h
371 06-10-2009 02:06:03 12.9 C 10.71 g/m*3 12.9 C 0 km/h
372 06-10-2009 02:18:03 12.8 C 10.64 g/m*3 12.8 C 0 km/h
373 06-10-2009 02:30:03 12.9 C 10.71 g/m*3 12.9 C 0 km/h
374 06-10-2009 02:42:04 13 C 10.77 g/m*3 13 C 0 km/h
375 06-10-2009 02:54:04 13 C 10.77 g/m*3 13 C 0 km/h
Sensor: Nr:Datum:Temp:Abs-Feuchte:Windchill:Wind:
Aussen-T/F 376 06-10-2009 03:06:04 13 C 10.77 g/m*3 13 C 0 km/h
377 06-10-2009 03:18:04 12.9 C 10.71 g/m*3 12.9 C 0 km/h
378 06-10-2009 03:30:04 13.1 C 10.84 g/m*3 13.1 C 0 km/h
379 06-10-2009 03:42:04 13.2 C 10.91 g/m*3 13.2 C 0 km/h
380 06-10-2009 03:54:04 13.5 C 11.11 g/m*3 13.5 C 0 km/h
381 06-10-2009 04:06:04 13.7 C 11.25 g/m*3 13.7 C 0 km/h
382 06-10-2009 04:18:04 14.4 C 11.74 g/m*3 14.4 C 0 km/h
383 06-10-2009 04:30:04 14.9 C 12.11 g/m*3 14.9 C 0 km/h
384 06-10-2009 04:42:04 14.3 C 11.67 g/m*3 14.3 C 0 km/h
385 06-10-2009 04:54:04 14.2 C 11.6 g/m*3 14.2 C 0 km/h
386 06-10-2009 05:06:04 14.5 C 11.82 g/m*3 14.5 C 0 km/h
387 06-10-2009 05:18:04 14.7 C 11.96 g/m*3 14.7 C 0 km/h
388 06-10-2009 05:30:04 15.2 C 12.33 g/m*3 15.2 C 0 km/h
389 06-10-2009 05:42:04 15.3 C 12.41 g/m*3 15.3 C 0 km/h
390 06-10-2009 05:54:04 15.2 C 12.33 g/m*3 15.2 C 0 km/h
391 06-10-2009 06:06:04 15.2 C 12.33 g/m*3 15.2 C 0 km/h
392 06-10-2009 06:18:04 15.2 C 12.33 g/m*3 15.2 C 0 km/h
393 06-10-2009 06:30:05 15.2 C 12.33 g/m*3 15.2 C 0 km/h
394 06-10-2009 06:42:05 15.2 C 12.33 g/m*3 15.2 C 0 km/h
395 06-10-2009 06:54:05 15.2 C 12.33 g/m*3 15.2 C 0 km/h
396 06-10-2009 07:06:01 15.3 C 12.41 g/m*3 15.3 C 0 km/h
397 06-10-2009 07:18:02 15.4 C 12.35 g/m*3 15.4 C 0 km/h
398 06-10-2009 07:30:02 15.4 C 12.22 g/m*3 15.4 C 0 km/h
399 06-10-2009 07:42:01 15.3 C 12.01 g/m*3 15.3 C 0 km/h
400 06-10-2009 07:54:02 15.2 C 11.94 g/m*3 15.2 C 0 km/h
Sensor: Nr:Datum:Temp:Abs-Feuchte:Windchill:Wind:
Aussen-T/F 401 06-10-2009 08:06:02 15.1 C 11.87 g/m*3 15.1 C 0 km/h
402 06-10-2009 08:18:02 15.1 C 11.87 g/m*3 15.1 C 0 km/h
403 06-10-2009 08:30:02 15 C 11.8 g/m*3 15 C 0 km/h
404 06-10-2009 08:42:02 15.2 C 11.94 g/m*3 15.2 C 0 km/h
405 06-10-2009 08:54:02 15.3 C 12.14 g/m*3 15.3 C 0 km/h
406 06-10-2009 09:06:02 15.3 C 12.01 g/m*3 15.3 C 0 km/h
407 06-10-2009 09:18:02 15.2 C 11.94 g/m*3 15.2 C 0 km/h
408 06-10-2009 09:30:02 15.1 C 11.87 g/m*3 15.1 C 0 km/h
409 06-10-2009 09:42:02 15.4 C 12.09 g/m*3 15.4 C 0 km/h
410 06-10-2009 09:54:02 15.7 C 12.31 g/m*3 15.7 C 0 km/h
411 06-10-2009 10:06:02 15.8 C 12.25 g/m*3 15.8 C 0 km/h
412 06-10-2009 10:18:02 16.3 C 12.49 g/m*3 16.3 C 0 km/h
413 06-10-2009 10:30:02 16.5 C 12.5 g/m*3 16.5 C 0 km/h
414 06-10-2009 10:42:02 16.7 C 12.51 g/m*3 16.7 C 0 km/h
415 06-10-2009 10:54:02 17 C 11.14 g/m*3 17 C 0 km/h
416 06-10-2009 11:06:03 17.6 C 10.5 g/m*3 17.6 C 0 km/h
417 06-10-2009 11:18:03 17.7 C 10.41 g/m*3 17.7 C 0 km/h
418 06-10-2009 11:30:03 17.9 C 10.54 g/m*3 17.9 C 0 km/h
419 06-10-2009 11:42:03 17.8 C 10.17 g/m*3 17.8 C 0 km/h
420 06-10-2009 11:54:02 18.1 C 10.2 g/m*3 18.1 C 0 km/h
421 06-10-2009 12:06:02 18.2 C 10.1 g/m*3 18.2 C 0 km/h
422 06-10-2009 12:18:03 18 C 10.29 g/m*3 18 C 0 km/h
423 06-10-2009 12:30:03 17.9 C 10.38 g/m*3 17.9 C 0 km/h
424 06-10-2009 12:42:02 17.9 C 10.54 g/m*3 17.9 C 0 km/h
425 06-10-2009 12:54:02 17.8 C 10.93 g/m*3 17.8 C 0 km/h
Sensor: Nr:Datum:Temp:Abs-Feuchte:Windchill:Wind:
Aussen-T/F 426 06-10-2009 13:06:02 17.8 C 11.23 g/m*3 17.8 C 0 km/h
427 06-10-2009 13:18:03 17.8 C 11.23 g/m*3 17.8 C 0 km/h
428 06-10-2009 13:30:03 17.2 C 11.28 g/m*3 17.2 C 0 km/h
429 06-10-2009 13:42:02 17 C 11.43 g/m*3 17 C 0 km/h
430 06-10-2009 13:54:02 16.9 C 11.65 g/m*3 16.9 C 0 km/h
431 06-10-2009 14:06:02 17.1 C 11.79 g/m*3 17.1 C 0 km/h
432 06-10-2009 14:18:02 17.4 C 12 g/m*3 17.4 C 0 km/h
433 06-10-2009 14:30:02 17.4 C 12.15 g/m*3 17.4 C 0 km/h
434 06-10-2009 14:42:02 17 C 12.01 g/m*3 17 C 0 km/h
435 06-10-2009 14:54:02 16.8 C 12.15 g/m*3 16.8 C 0 km/h
436 06-10-2009 15:06:01 16.8 C 12.3 g/m*3 16.8 C 0 km/h
437 06-10-2009 15:18:02 16.9 C 12.51 g/m*3 16.9 C 0 km/h
438 06-10-2009 15:30:02 17.1 C 12.66 g/m*3 17.1 C 0 km/h
439 06-10-2009 15:42:02 17 C 12.59 g/m*3 17 C 0 km/h
440 06-10-2009 15:54:02 17.3 C 12.96 g/m*3 17.3 C 0 km/h
441 06-10-2009 16:06:03 17.5 C 13.12 g/m*3 17.5 C 0 km/h
442 06-10-2009 16:18:02 17.4 C 13.04 g/m*3 17.4 C 0 km/h
443 06-10-2009 16:30:02 17.2 C 12.89 g/m*3 17.2 C 0 km/h
444 06-10-2009 16:42:03 17.1 C 12.96 g/m*3 17.1 C 0 km/h
445 06-10-2009 16:54:02 17.2 C 13.03 g/m*3 17.2 C 0 km/h
446 06-10-2009 17:06:02 17.1 C 12.96 g/m*3 17.1 C 0 km/h
447 06-10-2009 17:18:01 17 C 12.88 g/m*3 17 C 0 km/h
448 06-10-2009 17:30:01 17.1 C 12.96 g/m*3 17.1 C 0 km/h
449 06-10-2009 17:42:02 17.1 C 13.1 g/m*3 17.1 C 0 km/h
450 06-10-2009 17:54:02 17.1 C 13.1 g/m*3 17.1 C 0 km/h
Sensor: Nr:Datum:Temp:Abs-Feuchte:Windchill:Wind:
Aussen-T/F 451 06-10-2009 18:06:02 16.8 C 13.01 g/m*3 16.8 C 0 km/h
452 06-10-2009 18:18:01 16.8 C 13.01 g/m*3 16.8 C 0 km/h
453 06-10-2009 18:30:01 16.7 C 13.07 g/m*3 16.7 C 0 km/h
454 06-10-2009 18:42:02 16.7 C 13.07 g/m*3 16.7 C 0 km/h
455 06-10-2009 18:54:02 16.7 C 13.07 g/m*3 16.7 C 0 km/h
456 06-10-2009 19:06:02 16.7 C 13.22 g/m*3 16.7 C 0 km/h
457 06-10-2009 19:18:02 17.2 C 13.62 g/m*3 17.2 C 0 km/h
458 06-10-2009 19:30:02 17.5 C 13.87 g/m*3 17.5 C 0 km/h
459 06-10-2009 19:42:02 18.1 C 14.06 g/m*3 18.1 C 0 km/h
460 06-10-2009 19:54:01 18.2 C 13.68 g/m*3 18.2 C 0 km/h
461 06-10-2009 20:06:02 18.4 C 13.53 g/m*3 18.4 C 0 km/h
462 06-10-2009 20:18:02 18.3 C 13.29 g/m*3 18.3 C 0 km/h
463 06-10-2009 20:30:02 18.4 C 13.37 g/m*3 18.4 C 0 km/h
464 06-10-2009 20:42:02 18.4 C 13.21 g/m*3 18.4 C 0 km/h
465 06-10-2009 20:54:01 18.5 C 13.13 g/m*3 18.5 C 0 km/h
466 06-10-2009 21:06:02 18.4 C 13.05 g/m*3 18.4 C 0 km/h
467 06-10-2009 21:18:02 18.3 C 12.98 g/m*3 18.3 C 0 km/h
468 06-10-2009 21:30:02 18.4 C 13.05 g/m*3 18.4 C 0 km/h
469 06-10-2009 21:42:02 18.5 C 13.13 g/m*3 18.5 C 0 km/h
470 06-10-2009 21:54:02 18.5 C 13.13 g/m*3 18.5 C 0 km/h
471 06-10-2009 22:06:01 18.4 C 13.05 g/m*3 18.4 C 0 km/h
472 06-10-2009 22:19:03 18.3 C 13.13 g/m*3 18.3 C 0 km/h
473 06-10-2009 22:31:04 18.3 C 13.13 g/m*3 18.3 C 0 km/h
474 06-10-2009 22:43:04 18.3 C 13.13 g/m*3 18.3 C 0 km/h
475 06-10-2009 22:55:04 18.3 C 13.13 g/m*3 18.3 C 0 km/h
Sensor: Nr:Datum:Temp:Abs-Feuchte:Windchill:Wind:
Aussen-T/F 476 06-10-2009 23:07:04 18.3 C 13.13 g/m*3 18.3 C 0 km/h
477 06-10-2009 23:19:04 18.1 C 13.13 g/m*3 18.1 C 0 km/h
478 06-10-2009 23:31:04 18 C 13.21 g/m*3 18 C 0 km/h
479 06-10-2009 23:43:04 17.8 C 13.2 g/m*3 17.8 C 0 km/h
480 06-10-2009 23:55:04 17.7 C 13.13 g/m*3 17.7 C 0 km/h
481 07-10-2009 00:07:04 17.8 C 13.36 g/m*3 17.8 C 0 km/h
482 07-10-2009 00:19:04 17.9 C 13.44 g/m*3 17.9 C 0 km/h
483 07-10-2009 00:31:04 17.8 C 13.2 g/m*3 17.8 C 0 km/h
484 07-10-2009 00:43:04 17.7 C 13.13 g/m*3 17.7 C 0 km/h
485 07-10-2009 00:55:04 18 C 13.21 g/m*3 18 C 0 km/h
486 07-10-2009 01:07:04 17.9 C 13.28 g/m*3 17.9 C 0 km/h
487 07-10-2009 01:19:04 18 C 13.06 g/m*3 18 C 0 km/h
488 07-10-2009 01:31:04 18.1 C 13.13 g/m*3 18.1 C 0 km/h
489 07-10-2009 01:43:04 17.8 C 13.05 g/m*3 17.8 C 0 km/h
490 07-10-2009 01:55:04 17.5 C 12.97 g/m*3 17.5 C 0 km/h
491 07-10-2009 02:07:04 17.1 C 12.66 g/m*3 17.1 C 0 km/h
492 07-10-2009 02:19:05 17.1 C 12.96 g/m*3 17.1 C 0 km/h
493 07-10-2009 02:31:05 17 C 12.88 g/m*3 17 C 0 km/h
494 07-10-2009 02:43:05 17.2 C 13.18 g/m*3 17.2 C 0 km/h
495 07-10-2009 02:55:05 17 C 13.02 g/m*3 17 C 0 km/h
496 07-10-2009 03:07:05 16.9 C 13.09 g/m*3 16.9 C 0 km/h
497 07-10-2009 03:19:05 16.7 C 12.93 g/m*3 16.7 C 0 km/h
498 07-10-2009 03:31:05 16.5 C 12.92 g/m*3 16.5 C 0 km/h
499 07-10-2009 03:43:05 16.5 C 12.92 g/m*3 16.5 C 0 km/h
500 07-10-2009 03:55:05 16.3 C 12.76 g/m*3 16.3 C 0 km/h
Sensor: Nr:Datum:Temp:Abs-Feuchte:Windchill:Wind:
Aussen-T/F 501 07-10-2009 04:07:05 16.1 C 12.61 g/m*3 16.1 C 0 km/h
502 07-10-2009 04:19:05 16.2 C 12.69 g/m*3 16.2 C 0 km/h
503 07-10-2009 04:31:05 16.4 C 12.98 g/m*3 16.4 C 0 km/h
504 07-10-2009 04:43:05 16.4 C 12.98 g/m*3 16.4 C 0 km/h
505 07-10-2009 04:55:05 16.3 C 12.9 g/m*3 16.3 C 0 km/h
506 07-10-2009 05:07:05 16.3 C 12.9 g/m*3 16.3 C 0 km/h
507 07-10-2009 05:19:05 16.4 C 13.12 g/m*3 16.4 C 0 km/h
508 07-10-2009 05:31:05 16.3 C 13.04 g/m*3 16.3 C 0 km/h
509 07-10-2009 05:43:05 16.2 C 12.96 g/m*3 16.2 C 0 km/h
510 07-10-2009 05:55:05 15.9 C 12.73 g/m*3 15.9 C 0 km/h
511 07-10-2009 06:07:06 15.8 C 12.65 g/m*3 15.8 C 0 km/h
512 07-10-2009 06:19:06 15.5 C 12.43 g/m*3 15.5 C 0 km/h
513 07-10-2009 06:31:06 15.4 C 12.35 g/m*3 15.4 C 0 km/h
514 07-10-2009 06:43:06 15.2 C 12.2 g/m*3 15.2 C 0 km/h
515 07-10-2009 06:55:06 15.4 C 12.35 g/m*3 15.4 C 0 km/h
516 07-10-2009 07:07:06 15.4 C 12.35 g/m*3 15.4 C 0 km/h
517 07-10-2009 07:19:03 15.5 C 12.56 g/m*3 15.5 C 0 km/h
518 07-10-2009 07:31:03 15.6 C 12.63 g/m*3 15.6 C 0 km/h
519 07-10-2009 07:43:03 16.1 C 13.02 g/m*3 16.1 C 0 km/h
520 07-10-2009 07:55:01 16.6 C 13.42 g/m*3 16.6 C 0 km/h
521 07-10-2009 08:07:02 16.8 C 13.58 g/m*3 16.8 C 0 km/h
522 07-10-2009 08:19:01 16.8 C 13.58 g/m*3 16.8 C 0 km/h
523 07-10-2009 08:31:01 17.2 C 13.91 g/m*3 17.2 C 0 km/h
524 07-10-2009 08:43:01 17.2 C 13.91 g/m*3 17.2 C 0 km/h
525 07-10-2009 08:55:01 17.5 C 14.16 g/m*3 17.5 C 0 km/h
Sensor: Nr:Datum:Temp:Abs-Feuchte:Windchill:Wind:
Aussen-T/F 526 07-10-2009 09:07:02 17.6 C 14.25 g/m*3 17.6 C 0 km/h
527 07-10-2009 09:19:01 17.9 C 14.5 g/m*3 17.9 C 0 km/h
528 07-10-2009 09:31:01 18.1 C 14.52 g/m*3 18.1 C 0 km/h
529 07-10-2009 09:43:01 17.8 C 14.27 g/m*3 17.8 C 0 km/h
530 07-10-2009 09:55:01 18.3 C 14.38 g/m*3 18.3 C 0 km/h
531 07-10-2009 10:07:02 18.7 C 14.41 g/m*3 18.7 C 0 km/h
532 07-10-2009 10:19:02 19 C 14.01 g/m*3 19 C 0 km/h
533 07-10-2009 10:31:01 19.5 C 13.59 g/m*3 19.5 C 0 km/h
534 07-10-2009 10:43:01 20.2 C 12.94 g/m*3 20.2 C 0 km/h
535 07-10-2009 10:55:02 20.5 C 12.99 g/m*3 20.5 C 0 km/h
536 07-10-2009 11:07:01 20.5 C 12.63 g/m*3 20.5 C 0 km/h
537 07-10-2009 11:19:01 20.5 C 12.63 g/m*3 20.5 C 0 km/h
538 07-10-2009 11:31:02 20.6 C 12.53 g/m*3 20.6 C 0 km/h
539 07-10-2009 11:43:02 20.9 C 12.57 g/m*3 20.9 C 0 km/h
540 07-10-2009 11:55:01 21.3 C 12.49 g/m*3 21.3 C 0 km/h
541 07-10-2009 12:07:02 21.3 C 12.3 g/m*3 21.3 C 0 km/h
542 07-10-2009 12:19:01 21.5 C 12.82 g/m*3 21.5 C 0 km/h
543 07-10-2009 12:31:02 21.8 C 12.66 g/m*3 21.8 C 0 km/h
544 07-10-2009 12:43:02 22 C 12.81 g/m*3 22 C 0 km/h
545 07-10-2009 12:55:01 22.5 C 12.78 g/m*3 22.5 C 0 km/h
546 07-10-2009 13:07:02 23.1 C 12.2 g/m*3 23.1 C 0 km/h
547 07-10-2009 13:19:01 23.1 C 12.2 g/m*3 23.1 C 0 km/h
548 07-10-2009 13:31:02 23.4 C 12.62 g/m*3 23.4 C 0 km/h
549 07-10-2009 13:43:02 23.8 C 12.05 g/m*3 23.8 C 0 km/h
550 07-10-2009 13:55:01 24.3 C 11.51 g/m*3 24.3 C 0 km/h
Sensor: Nr:Datum:Temp:Abs-Feuchte:Windchill:Wind:
Aussen-T/F 551 07-10-2009 14:07:02 24.9 C 11.22 g/m*3 24.9 C 0 km/h
552 07-10-2009 14:19:02 24.8 C 10.47 g/m*3 24.8 C 0 km/h
553 07-10-2009 14:31:01 24.6 C 10.58 g/m*3 24.6 C 0 km/h
554 07-10-2009 14:43:01 24.3 C 10.4 g/m*3 24.3 C 0 km/h
555 07-10-2009 14:55:02 24.5 C 10.74 g/m*3 24.5 C 0 km/h
556 07-10-2009 15:07:01 24.6 C 10.8 g/m*3 24.6 C 0 km/h
557 07-10-2009 15:19:02 24.5 C 11.64 g/m*3 24.5 C 0 km/h
558 07-10-2009 15:31:01 24.3 C 11.06 g/m*3 24.3 C 0 km/h
559 07-10-2009 15:43:01 24.4 C 11.35 g/m*3 24.4 C 0 km/h
560 07-10-2009 15:55:03 24.6 C 11.7 g/m*3 24.6 C 0 km/h
561 07-10-2009 16:07:02 24.1 C 11.82 g/m*3 24.1 C 0 km/h
562 07-10-2009 16:19:02 24 C 11.1 g/m*3 24 C 0 km/h
563 07-10-2009 16:31:03 23.9 C 10.6 g/m*3 23.9 C 0 km/h
564 07-10-2009 16:43:03 24 C 11.31 g/m*3 24 C 0 km/h
565 07-10-2009 16:55:02 23.8 C 11.83 g/m*3 23.8 C 0 km/h
566 07-10-2009 17:07:01 23.3 C 12.55 g/m*3 23.3 C 0 km/h
567 07-10-2009 17:19:02 23 C 12.74 g/m*3 23 C 0 km/h
568 07-10-2009 17:31:02 22.8 C 13 g/m*3 22.8 C 0 km/h
569 07-10-2009 17:43:02 22.5 C 13.38 g/m*3 22.5 C 0 km/h
570 07-10-2009 17:55:01 22 C 13.39 g/m*3 22 C 0 km/h
571 07-10-2009 18:07:02 21.7 C 13.35 g/m*3 21.7 C 0 km/h
572 07-10-2009 18:19:01 21.4 C 13.31 g/m*3 21.4 C 0 km/h
573 07-10-2009 18:31:01 21 C 13.37 g/m*3 21 C 0 km/h
574 07-10-2009 18:43:02 20.8 C 13.4 g/m*3 20.8 C 0 km/h
575 07-10-2009 18:55:01 20.4 C 13.09 g/m*3 20.4 C 0 km/h
Sensor: Nr:Datum:Temp:Abs-Feuchte:Windchill:Wind:
Aussen-T/F 576 07-10-2009 19:07:02 20.3 C 13.01 g/m*3 20.3 C 0 km/h
577 07-10-2009 19:19:01 20.1 C 13.04 g/m*3 20.1 C 0 km/h
578 07-10-2009 19:31:02 20.1 C 13.04 g/m*3 20.1 C 0 km/h
579 07-10-2009 19:43:02 20 C 12.96 g/m*3 20 C 0 km/h
580 07-10-2009 19:55:01 19.9 C 13.06 g/m*3 19.9 C 0 km/h
581 07-10-2009 20:07:02 19.9 C 13.23 g/m*3 19.9 C 0 km/h
582 07-10-2009 20:19:01 19.7 C 13.08 g/m*3 19.7 C 0 km/h
583 07-10-2009 20:31:02 19.7 C 13.25 g/m*3 19.7 C 0 km/h
584 07-10-2009 20:43:02 19.4 C 13.01 g/m*3 19.4 C 0 km/h
585 07-10-2009 20:55:01 19.5 C 13.09 g/m*3 19.5 C 0 km/h
586 07-10-2009 21:07:01 19.5 C 13.09 g/m*3 19.5 C 0 km/h
587 07-10-2009 21:19:02 19.5 C 12.59 g/m*3 19.5 C 0 km/h
588 07-10-2009 21:31:02 19.6 C 12.15 g/m*3 19.6 C 0 km/h
589 07-10-2009 21:43:02 19.7 C 11.89 g/m*3 19.7 C 0 km/h
590 07-10-2009 21:55:02 19.7 C 11.72 g/m*3 19.7 C 0 km/h
591 07-10-2009 22:07:02 19.6 C 11.48 g/m*3 19.6 C 0 km/h
592 07-10-2009 22:19:02 19.7 C 11.55 g/m*3 19.7 C 0 km/h
593 07-10-2009 22:31:02 20 C 11.06 g/m*3 20 C 0 km/h
594 07-10-2009 22:43:02 20.3 C 11.08 g/m*3 20.3 C 0 km/h
595 07-10-2009 22:55:01 20.2 C 11.02 g/m*3 20.2 C 0 km/h
596 07-10-2009 23:07:01 20 C 11.23 g/m*3 20 C 0 km/h
597 07-10-2009 23:19:02 20 C 11.23 g/m*3 20 C 0 km/h
598 07-10-2009 23:31:01 19.8 C 11.61 g/m*3 19.8 C 0 km/h
599 07-10-2009 23:43:01 19.6 C 11.82 g/m*3 19.6 C 0 km/h
600 07-10-2009 23:55:01 19 C 12.06 g/m*3 19 C 0 km/h
Sensor: Nr:Datum:Temp:Abs-Feuchte:Windchill:Wind:
Aussen-T/F 601 08-10-2009 00:07:01 18.5 C 12.66 g/m*3 18.5 C 0 km/h
602 08-10-2009 00:20:02 18.3 C 12.82 g/m*3 18.3 C 0 km/h
603 08-10-2009 00:32:03 18.5 C 12.02 g/m*3 18.5 C 0 km/h
604 08-10-2009 00:44:03 19.3 C 11.94 g/m*3 19.3 C 0 km/h
605 08-10-2009 00:56:03 18.5 C 12.66 g/m*3 18.5 C 0 km/h
606 08-10-2009 01:08:03 18.1 C 12.98 g/m*3 18.1 C 0 km/h
607 08-10-2009 01:20:03 17.9 C 13.28 g/m*3 17.9 C 0 km/h
608 08-10-2009 01:32:03 17.7 C 13.28 g/m*3 17.7 C 0 km/h
609 08-10-2009 01:44:03 17.5 C 13.27 g/m*3 17.5 C 0 km/h
610 08-10-2009 01:56:03 17.3 C 13.11 g/m*3 17.3 C 0 km/h
611 08-10-2009 02:08:03 17.3 C 13.11 g/m*3 17.3 C 0 km/h
612 08-10-2009 02:20:03 17.2 C 13.18 g/m*3 17.2 C 0 km/h
613 08-10-2009 02:32:03 17.2 C 13.18 g/m*3 17.2 C 0 km/h
614 08-10-2009 02:44:03 17.2 C 13.18 g/m*3 17.2 C 0 km/h
615 08-10-2009 02:56:03 17.4 C 13.34 g/m*3 17.4 C 0 km/h
616 08-10-2009 03:08:03 17.9 C 13.13 g/m*3 17.9 C 0 km/h
617 08-10-2009 03:20:03 18.5 C 12.5 g/m*3 18.5 C 0 km/h
618 08-10-2009 03:32:03 18.4 C 12.27 g/m*3 18.4 C 0 km/h
619 08-10-2009 03:44:03 18.4 C 12.11 g/m*3 18.4 C 0 km/h
620 08-10-2009 03:56:03 18.4 C 11.95 g/m*3 18.4 C 0 km/h
621 08-10-2009 04:08:03 18.6 C 12.1 g/m*3 18.6 C 0 km/h
622 08-10-2009 04:20:04 18.8 C 11.92 g/m*3 18.8 C 0 km/h
623 08-10-2009 04:32:04 18.7 C 11.85 g/m*3 18.7 C 0 km/h
624 08-10-2009 04:44:04 18.7 C 11.69 g/m*3 18.7 C 0 km/h
625 08-10-2009 04:56:04 18.7 C 11.69 g/m*3 18.7 C 0 km/h
Sensor: Nr:Datum:Temp:Abs-Feuchte:Windchill:Wind:
Aussen-T/F 626 08-10-2009 05:08:04 18.8 C 11.76 g/m*3 18.8 C 0 km/h
627 08-10-2009 05:20:04 19 C 11.57 g/m*3 19 C 0 km/h
628 08-10-2009 05:32:04 18.9 C 11.66 g/m*3 18.9 C 0 km/h
629 08-10-2009 05:44:04 19 C 11.57 g/m*3 19 C 0 km/h
630 08-10-2009 05:56:04 19.1 C 11.64 g/m*3 19.1 C 0 km/h
631 08-10-2009 06:08:04 19.1 C 11.64 g/m*3 19.1 C 0 km/h
632 08-10-2009 06:20:04 18.9 C 11.66 g/m*3 18.9 C 0 km/h
633 08-10-2009 06:32:04 18.8 C 11.76 g/m*3 18.8 C 0 km/h
634 08-10-2009 06:44:04 18.6 C 11.62 g/m*3 18.6 C 0 km/h
635 08-10-2009 06:56:04 18.5 C 11.71 g/m*3 18.5 C 0 km/h
636 08-10-2009 07:08:04 18.5 C 11.71 g/m*3 18.5 C 0 km/h
637 08-10-2009 07:20:03 18.7 C 11.69 g/m*3 18.7 C 0 km/h
638 08-10-2009 07:32:02 18.8 C 11.43 g/m*3 18.8 C 0 km/h
639 08-10-2009 07:44:02 18.8 C 11.27 g/m*3 18.8 C 0 km/h
640 08-10-2009 07:56:03 18.8 C 11.27 g/m*3 18.8 C 0 km/h
641 08-10-2009 08:08:02 18.6 C 11.46 g/m*3 18.6 C 0 km/h
642 08-10-2009 08:20:02 18.6 C 11.3 g/m*3 18.6 C 0 km/h
643 08-10-2009 08:32:02 18.7 C 11.37 g/m*3 18.7 C 0 km/h
644 08-10-2009 08:44:02 18.6 C 11.46 g/m*3 18.6 C 0 km/h
645 08-10-2009 08:56:02 17.8 C 11.69 g/m*3 17.8 C 0 km/h
646 08-10-2009 09:08:02 17.5 C 12.08 g/m*3 17.5 C 0 km/h
647 08-10-2009 09:20:02 17.7 C 11.77 g/m*3 17.7 C 0 km/h
648 08-10-2009 09:32:02 17.2 C 11.13 g/m*3 17.2 C 0 km/h
649 08-10-2009 09:44:02 16.4 C 10.75 g/m*3 16.4 C 0 km/h
650 08-10-2009 09:56:02 15.9 C 10.43 g/m*3 15.9 C 0 km/h
Sensor: Nr:Datum:Temp:Abs-Feuchte:Windchill:Wind:
Aussen-T/F 651 08-10-2009 10:08:01 15.8 C 10.23 g/m*3 15.8 C 0 km/h
652 08-10-2009 10:20:01 15.6 C 9.97 g/m*3 15.6 C 0 km/h
653 08-10-2009 10:32:02 15.3 C 9.79 g/m*3 15.3 C 0 km/h
654 08-10-2009 10:44:02 15.2 C 9.86 g/m*3 15.2 C 0 km/h
655 08-10-2009 10:56:02 15.2 C 9.73 g/m*3 15.2 C 0 km/h
656 08-10-2009 11:08:02 14.8 C 9.63 g/m*3 14.8 C 0 km/h
657 08-10-2009 11:20:02 14.6 C 9.51 g/m*3 14.6 C 0 km/h
658 08-10-2009 11:32:02 14.6 C 9.39 g/m*3 14.6 C 0 km/h
659 08-10-2009 11:44:02 14.8 C 9.37 g/m*3 14.8 C 0 km/h
660 08-10-2009 11:56:01 15.1 C 9.03 g/m*3 15.1 C 0 km/h
661 08-10-2009 12:08:02 14.9 C 8.92 g/m*3 14.9 C 0 km/h
662 08-10-2009 12:20:01 15.3 C 8.88 g/m*3 15.3 C 0 km/h
663 08-10-2009 12:32:02 15.3 C 8.49 g/m*3 15.3 C 0 km/h
664 08-10-2009 12:44:03 15.8 C 8.88 g/m*3 15.8 C 0 km/h
665 08-10-2009 12:56:02 16 C 8.31 g/m*3 16 C 0 km/h
666 08-10-2009 13:08:02 16.3 C 8.6 g/m*3 16.3 C 0 km/h
667 08-10-2009 13:20:01 16.9 C 8.92 g/m*3 16.9 C 0 km/h
668 08-10-2009 13:32:02 17.7 C 8.6 g/m*3 17.7 C 0 km/h
669 08-10-2009 13:44:02 16.8 C 8.44 g/m*3 16.8 C 0 km/h
670 08-10-2009 13:56:02 17.6 C 8.85 g/m*3 17.6 C 0 km/h
671 08-10-2009 14:08:02 17 C 8.25 g/m*3 17 C 0 km/h
672 08-10-2009 14:20:02 17.4 C 8.45 g/m*3 17.4 C 0 km/h
673 08-10-2009 14:32:02 17.4 C 8.3 g/m*3 17.4 C 0 km/h
674 08-10-2009 14:44:02 18 C 8.29 g/m*3 18 C 0 km/h
675 08-10-2009 14:56:02 17.9 C 8.4 g/m*3 17.9 C 0 km/h
Sensor: Nr:Datum:Temp:Abs-Feuchte:Windchill:Wind:
Aussen-T/F 676 08-10-2009 15:08:03 18.2 C 8.39 g/m*3 18.2 C 0 km/h
677 08-10-2009 15:20:02 18.6 C 8.12 g/m*3 18.6 C 0 km/h
678 08-10-2009 15:32:02 18 C 7.99 g/m*3 18 C 0 km/h
679 08-10-2009 15:44:02 17.5 C 8.2 g/m*3 17.5 C 0 km/h
680 08-10-2009 15:56:02 17.4 C 8.3 g/m*3 17.4 C 0 km/h
681 08-10-2009 16:08:02 17.8 C 8.35 g/m*3 17.8 C 0 km/h
682 08-10-2009 16:20:02 17.8 C 8.35 g/m*3 17.8 C 0 km/h
683 08-10-2009 16:32:01 17.3 C 8.25 g/m*3 17.3 C 0 km/h
684 08-10-2009 16:44:01 17.2 C 8.35 g/m*3 17.2 C 0 km/h
685 08-10-2009 16:56:02 16.8 C 8.44 g/m*3 16.8 C 0 km/h
686 08-10-2009 17:08:01 16.4 C 8.1 g/m*3 16.4 C 0 km/h
687 08-10-2009 17:20:02 16.2 C 8.27 g/m*3 16.2 C 0 km/h
688 08-10-2009 17:32:02 16.1 C 8.09 g/m*3 16.1 C 0 km/h
689 08-10-2009 17:44:02 15.8 C 8.35 g/m*3 15.8 C 0 km/h
690 08-10-2009 17:56:02 15.5 C 8.33 g/m*3 15.5 C 0 km/h
691 08-10-2009 18:08:01 15.5 C 8.33 g/m*3 15.5 C 0 km/h
692 08-10-2009 18:20:01 15.4 C 8.28 g/m*3 15.4 C 0 km/h
693 08-10-2009 18:32:02 15.1 C 8.26 g/m*3 15.1 C 0 km/h
694 08-10-2009 18:44:02 15.1 C 8.26 g/m*3 15.1 C 0 km/h
695 08-10-2009 18:56:02 15 C 8.21 g/m*3 15 C 0 km/h
696 08-10-2009 19:08:02 15.1 C 8.39 g/m*3 15.1 C 0 km/h
697 08-10-2009 19:20:02 15.1 C 8.39 g/m*3 15.1 C 0 km/h
698 08-10-2009 19:32:02 14.9 C 8.28 g/m*3 14.9 C 0 km/h
699 08-10-2009 19:44:02 14.6 C 8.26 g/m*3 14.6 C 0 km/h
700 08-10-2009 19:56:02 14.3 C 8.35 g/m*3 14.3 C 0 km/h
Sensor: Nr:Datum:Temp:Abs-Feuchte:Windchill:Wind:
Aussen-T/F 701 08-10-2009 20:08:03 13.9 C 8.39 g/m*3 13.9 C 0 km/h
702 08-10-2009 20:20:02 13.8 C 8.46 g/m*3 13.8 C 0 km/h
703 08-10-2009 20:32:02 13.6 C 8.47 g/m*3 13.6 C 0 km/h
704 08-10-2009 20:44:02 13.4 C 8.49 g/m*3 13.4 C 0 km/h
705 08-10-2009 20:56:01 13.1 C 8.44 g/m*3 13.1 C 0 km/h
706 08-10-2009 21:08:01 13.2 C 8.61 g/m*3 13.2 C 0 km/h
707 08-10-2009 21:20:02 13.3 C 8.66 g/m*3 13.3 C 0 km/h
708 08-10-2009 21:32:01 13.1 C 8.44 g/m*3 13.1 C 0 km/h
709 08-10-2009 21:44:01 12.8 C 8.51 g/m*3 12.8 C 0 km/h
710 08-10-2009 21:56:02 12.5 C 8.47 g/m*3 12.5 C 0 km/h
711 08-10-2009 22:08:01 12.3 C 8.47 g/m*3 12.3 C 0 km/h
712 08-10-2009 22:20:01 12.1 C 8.47 g/m*3 12.1 C 0 km/h
713 08-10-2009 22:32:01 12 C 8.53 g/m*3 12 C 0 km/h
714 08-10-2009 22:44:01 11.7 C 8.47 g/m*3 11.7 C 0 km/h
715 08-10-2009 22:57:03 11.7 C 8.58 g/m*3 11.7 C 0 km/h
716 08-10-2009 23:09:03 11.5 C 8.57 g/m*3 11.5 C 0 km/h
717 08-10-2009 23:21:03 11.4 C 8.52 g/m*3 11.4 C 0 km/h
718 08-10-2009 23:33:04 11.3 C 8.47 g/m*3 11.3 C 0 km/h
719 08-10-2009 23:45:04 11.2 C 8.41 g/m*3 11.2 C 0 km/h
720 08-10-2009 23:57:04 11.2 C 8.51 g/m*3 11.2 C 0 km/h

Legende:
   Min
   Max


Maximal/Minimal-Werte vom 03.10.2009 - 08.10.2009

Sensor Min Max Avg
Temp
(Aussen-T/F)
6.4 °C
03-10-2009  05:15:06
24.9 °C
07-10-2009  14:07:02
14.96 °C
Abs-Feuchte
(Aussen-T/F)
5.97 g/m*3
03-10-2009  15:27:02
14.52 g/m*3
07-10-2009  09:31:01
9.84 g/m*3
Windchill
(Aussen-T/F)
6.4 C
03-10-2009  05:15:06
24.9 C
07-10-2009  14:07:02
14.94 C

Die Daten stammen von einer Davis Vantage Pro 2 Wetter-Station und werden unter Linux mit der Software wview2wettercgi und aufbereitet. Alle Angaben erfolgen ohne Gewähr für ihre Vollständigkeit oder Richtigkeit.
Kontakt: Rainer Krienke krienke@uni-koblenz.de . Meine Webseiten an der Uni Koblenz oder privat.
Version: $Revision: 0.78 $